sensor_id;sensor_type;location;lat;lon;timestamp;pressure;altitude;pressure_sealevel;temperature;humidity
35519;BME280;21627;48.216;16.482;2023-06-22T00:00:15;100126.88;;;20.10;100.00
35519;BME280;21627;48.216;16.482;2023-06-22T00:02:42;100126.81;;;20.14;100.00
35519;BME280;21627;48.216;16.482;2023-06-22T00:05:10;100117.25;;;20.11;100.00
35519;BME280;21627;48.216;16.482;2023-06-22T00:07:37;100119.06;;;20.09;100.00
35519;BME280;21627;48.216;16.482;2023-06-22T00:10:05;100109.63;;;20.03;100.00
35519;BME280;21627;48.216;16.482;2023-06-22T00:12:32;100101.81;;;20.02;100.00
35519;BME280;21627;48.216;16.482;2023-06-22T00:14:59;100111.50;;;20.00;100.00
35519;BME280;21627;48.216;16.482;2023-06-22T00:17:26;100114.22;;;19.97;100.00
35519;BME280;21627;48.216;16.482;2023-06-22T00:19:53;100112.56;;;19.94;100.00
35519;BME280;21627;48.216;16.482;2023-06-22T00:22:23;100109.09;;;19.94;100.00
35519;BME280;21627;48.216;16.482;2023-06-22T00:24:56;100098.66;;;19.91;100.00
35519;BME280;21627;48.216;16.482;2023-06-22T00:27:24;100112.75;;;19.88;100.00
35519;BME280;21627;48.216;16.482;2023-06-22T00:29:51;100119.84;;;19.86;100.00
35519;BME280;21627;48.216;16.482;2023-06-22T00:32:18;100113.78;;;19.84;100.00
35519;BME280;21627;48.216;16.482;2023-06-22T00:34:46;100100.69;;;19.82;100.00
35519;BME280;21627;48.216;16.482;2023-06-22T00:37:13;100107.75;;;19.80;100.00
35519;BME280;21627;48.216;16.482;2023-06-22T00:39:40;100108.63;;;19.81;100.00
35519;BME280;21627;48.216;16.482;2023-06-22T00:42:07;100100.09;;;19.74;100.00
35519;BME280;21627;48.216;16.482;2023-06-22T00:44:36;100100.94;;;19.75;100.00
35519;BME280;21627;48.216;16.482;2023-06-22T00:47:03;100097.41;;;19.76;100.00
35519;BME280;21627;48.216;16.482;2023-06-22T00:49:31;100086.28;;;19.67;100.00
35519;BME280;21627;48.216;16.482;2023-06-22T00:51:58;100099.41;;;19.67;100.00
35519;BME280;21627;48.216;16.482;2023-06-22T00:54:26;100094.25;;;19.64;100.00
35519;BME280;21627;48.216;16.482;2023-06-22T00:56:55;100088.25;;;19.61;100.00
35519;BME280;21627;48.216;16.482;2023-06-22T00:59:27;100083.94;;;19.58;100.00
35519;BME280;21627;48.216;16.482;2023-06-22T01:01:54;100082.28;;;19.56;100.00
35519;BME280;21627;48.216;16.482;2023-06-22T01:04:33;100086.72;;;19.54;100.00
35519;BME280;21627;48.216;16.482;2023-06-22T01:07:31;100098.16;;;19.51;100.00
35519;BME280;21627;48.216;16.482;2023-06-22T01:12:55;100089.69;;;19.43;100.00
35519;BME280;21627;48.216;16.482;2023-06-22T01:15:51;100091.41;;;19.42;100.00
35519;BME280;21627;48.216;16.482;2023-06-22T01:18:22;100080.16;;;19.40;100.00
35519;BME280;21627;48.216;16.482;2023-06-22T01:20:54;100081.13;;;19.36;100.00
35519;BME280;21627;48.216;16.482;2023-06-22T01:29:25;100079.59;;;19.29;100.00
35519;BME280;21627;48.216;16.482;2023-06-22T01:31:54;100077.91;;;19.28;100.00
35519;BME280;21627;48.216;16.482;2023-06-22T01:34:23;100076.94;;;19.31;100.00
35519;BME280;21627;48.216;16.482;2023-06-22T01:36:52;100076.06;;;19.30;100.00
35519;BME280;21627;48.216;16.482;2023-06-22T01:39:20;100058.63;;;19.29;100.00
35519;BME280;21627;48.216;16.482;2023-06-22T01:41:48;100059.47;;;19.30;100.00
35519;BME280;21627;48.216;16.482;2023-06-22T01:44:16;100067.31;;;19.31;100.00
35519;BME280;21627;48.216;16.482;2023-06-22T01:46:44;100077.84;;;19.30;100.00
35519;BME280;21627;48.216;16.482;2023-06-22T01:49:12;100075.34;;;19.25;100.00
35519;BME280;21627;48.216;16.482;2023-06-22T01:51:40;100070.03;;;19.28;100.00
35519;BME280;21627;48.216;16.482;2023-06-22T01:54:07;100075.19;;;19.31;100.00
35519;BME280;21627;48.216;16.482;2023-06-22T01:56:35;100071.69;;;19.31;100.00
35519;BME280;21627;48.216;16.482;2023-06-22T01:59:20;100069.97;;;19.30;100.00
35519;BME280;21627;48.216;16.482;2023-06-22T02:02:06;100063.84;;;19.31;100.00
35519;BME280;21627;48.216;16.482;2023-06-22T02:05:01;100069.97;;;19.30;100.00
35519;BME280;21627;48.216;16.482;2023-06-22T02:07:41;100069.22;;;19.26;100.00
35519;BME280;21627;48.216;16.482;2023-06-22T02:10:14;100065.78;;;19.24;100.00
35519;BME280;21627;48.216;16.482;2023-06-22T02:12:43;100057.19;;;19.19;100.00
35519;BME280;21627;48.216;16.482;2023-06-22T02:15:11;100061.50;;;19.21;100.00
35519;BME280;21627;48.216;16.482;2023-06-22T02:17:40;100058.13;;;19.18;100.00
35519;BME280;21627;48.216;16.482;2023-06-22T02:20:13;100062.44;;;19.19;100.00
35519;BME280;21627;48.216;16.482;2023-06-22T02:22:41;100060.72;;;19.18;100.00
35519;BME280;21627;48.216;16.482;2023-06-22T02:25:08;100067.72;;;19.17;100.00
35519;BME280;21627;48.216;16.482;2023-06-22T02:27:36;100062.63;;;19.13;100.00
35519;BME280;21627;48.216;16.482;2023-06-22T02:30:10;100054.84;;;19.10;100.00
35519;BME280;21627;48.216;16.482;2023-06-22T02:32:37;100060.97;;;19.10;100.00
35519;BME280;21627;48.216;16.482;2023-06-22T02:35:04;100064.53;;;19.08;100.00
35519;BME280;21627;48.216;16.482;2023-06-22T02:37:36;100064.72;;;19.01;100.00
35519;BME280;21627;48.216;16.482;2023-06-22T02:40:07;100053.41;;;18.99;100.00
35519;BME280;21627;48.216;16.482;2023-06-22T02:42:37;100055.28;;;18.96;100.00
35519;BME280;21627;48.216;16.482;2023-06-22T02:45:05;100051.81;;;18.95;100.00
35519;BME280;21627;48.216;16.482;2023-06-22T02:47:32;100054.41;;;18.95;100.00
35519;BME280;21627;48.216;16.482;2023-06-22T02:49:59;100047.53;;;18.91;100.00
35519;BME280;21627;48.216;16.482;2023-06-22T02:52:27;100044.91;;;18.91;100.00
35519;BME280;21627;48.216;16.482;2023-06-22T02:54:54;100051.06;;;18.90;100.00
35519;BME280;21627;48.216;16.482;2023-06-22T02:57:21;100059.00;;;18.87;100.00
35519;BME280;21627;48.216;16.482;2023-06-22T02:59:48;100062.56;;;18.85;100.00
35519;BME280;21627;48.216;16.482;2023-06-22T03:02:18;100049.81;;;18.72;100.00
35519;BME280;21627;48.216;16.482;2023-06-22T03:04:48;100063.69;;;18.77;100.00
35519;BME280;21627;48.216;16.482;2023-06-22T03:07:16;100060.25;;;18.75;100.00
35519;BME280;21627;48.216;16.482;2023-06-22T03:09:44;100071.56;;;18.74;100.00
35519;BME280;21627;48.216;16.482;2023-06-22T03:12:11;100069.03;;;18.71;100.00
35519;BME280;21627;48.216;16.482;2023-06-22T03:14:39;100070.78;;;18.72;100.00
35519;BME280;21627;48.216;16.482;2023-06-22T03:17:06;100058.63;;;18.70;100.00
35519;BME280;21627;48.216;16.482;2023-06-22T03:19:33;100056.00;;;18.70;100.00
35519;BME280;21627;48.216;16.482;2023-06-22T03:22:00;100050.78;;;18.70;100.00
35519;BME280;21627;48.216;16.482;2023-06-22T03:24:27;100054.28;;;18.69;100.00
35519;BME280;21627;48.216;16.482;2023-06-22T03:26:57;100063.81;;;18.71;100.00
35519;BME280;21627;48.216;16.482;2023-06-22T03:29:24;100067.28;;;18.72;100.00
35519;BME280;21627;48.216;16.482;2023-06-22T03:31:55;100076.03;;;18.71;100.00
35519;BME280;21627;48.216;16.482;2023-06-22T03:34:22;100070.81;;;18.71;100.00
35519;BME280;21627;48.216;16.482;2023-06-22T03:36:49;100065.56;;;18.71;100.00
35519;BME280;21627;48.216;16.482;2023-06-22T03:39:16;100060.34;;;18.71;100.00
35519;BME280;21627;48.216;16.482;2023-06-22T03:41:43;100069.00;;;18.73;100.00
35519;BME280;21627;48.216;16.482;2023-06-22T03:44:11;100071.56;;;18.74;100.00
35519;BME280;21627;48.216;16.482;2023-06-22T03:46:39;100070.72;;;18.75;100.00
35519;BME280;21627;48.216;16.482;2023-06-22T03:49:06;100059.38;;;18.73;100.00
35519;BME280;21627;48.216;16.482;2023-06-22T03:51:33;100061.94;;;18.76;100.00
35519;BME280;21627;48.216;16.482;2023-06-22T03:54:01;100058.47;;;18.76;100.00
35519;BME280;21627;48.216;16.482;2023-06-22T03:56:28;100060.97;;;18.80;100.00
35519;BME280;21627;48.216;16.482;2023-06-22T03:58:55;100063.59;;;18.80;100.00
35519;BME280;21627;48.216;16.482;2023-06-22T04:01:22;100066.09;;;18.84;100.00
35519;BME280;21627;48.216;16.482;2023-06-22T04:03:49;100068.69;;;18.85;100.00
35519;BME280;21627;48.216;16.482;2023-06-22T04:06:16;100059.00;;;18.87;100.00
35519;BME280;21627;48.216;16.482;2023-06-22T04:08:46;100061.59;;;18.89;100.00
35519;BME280;21627;48.216;16.482;2023-06-22T04:11:18;100060.53;;;18.94;100.00
35519;BME280;21627;48.216;16.482;2023-06-22T04:13:45;100059.56;;;18.98;100.00
35519;BME280;21627;48.216;16.482;2023-06-22T04:16:13;100052.66;;;18.96;100.00
35519;BME280;21627;48.216;16.482;2023-06-22T04:18:40;100047.22;;;19.02;100.00
35519;BME280;21627;48.216;16.482;2023-06-22T04:21:07;100053.16;;;19.07;100.00
35519;BME280;21627;48.216;16.482;2023-06-22T04:23:34;100047.94;;;19.07;100.00
35519;BME280;21627;48.216;16.482;2023-06-22T04:26:01;100057.34;;;19.14;100.00
35519;BME280;21627;48.216;16.482;2023-06-22T04:28:28;100043.16;;;19.20;100.00
35519;BME280;21627;48.216;16.482;2023-06-22T04:30:55;100037.94;;;19.20;100.00
35519;BME280;21627;48.216;16.482;2023-06-22T04:33:30;100043.88;;;19.25;100.00
35519;BME280;21627;48.216;16.482;2023-06-22T04:35:58;100042.03;;;19.29;100.00
35519;BME280;21627;48.216;16.482;2023-06-22T04:38:25;100041.91;;;19.33;100.00
35519;BME280;21627;48.216;16.482;2023-06-22T04:40:52;100038.38;;;19.34;100.00
35519;BME280;21627;48.216;16.482;2023-06-22T04:43:20;100045.09;;;19.43;100.00
35519;BME280;21627;48.216;16.482;2023-06-22T04:45:47;100056.34;;;19.46;100.00
35519;BME280;21627;48.216;16.482;2023-06-22T04:48:19;100049.38;;;19.45;100.00
35519;BME280;21627;48.216;16.482;2023-06-22T04:50:46;100063.09;;;19.54;100.00
35519;BME280;21627;48.216;16.482;2023-06-22T04:53:13;100056.81;;;19.59;100.00
35519;BME280;21627;48.216;16.482;2023-06-22T04:55:41;100059.38;;;19.61;100.00
35519;BME280;21627;48.216;16.482;2023-06-22T04:58:08;100065.38;;;19.64;100.00
35519;BME280;21627;48.216;16.482;2023-06-22T05:00:35;100063.56;;;19.66;100.00
35519;BME280;21627;48.216;16.482;2023-06-22T05:03:05;100064.34;;;19.70;100.00
35519;BME280;21627;48.216;16.482;2023-06-22T05:05:46;100066.72;;;19.78;100.00
35519;BME280;21627;48.216;16.482;2023-06-22T05:08:13;100071.94;;;19.79;100.00
35519;BME280;21627;48.216;16.482;2023-06-22T05:10:41;100074.34;;;19.85;100.00
35519;BME280;21627;48.216;16.482;2023-06-22T05:13:28;100078.63;;;19.88;100.00
35519;BME280;21627;48.216;16.482;2023-06-22T05:15:55;100078.56;;;19.91;100.00
35519;BME280;21627;48.216;16.482;2023-06-22T05:18:32;100072.34;;;19.94;100.00
35519;BME280;21627;48.216;16.482;2023-06-22T05:21:00;100075.84;;;19.93;100.00
35519;BME280;21627;48.216;16.482;2023-06-22T05:23:27;100083.53;;;19.99;100.00
35519;BME280;21627;48.216;16.482;2023-06-22T05:25:54;100083.28;;;20.06;100.00
35519;BME280;21627;48.216;16.482;2023-06-22T05:28:24;100078.78;;;20.10;100.00
35519;BME280;21627;48.216;16.482;2023-06-22T05:30:51;100072.66;;;20.09;100.00
35519;BME280;21627;48.216;16.482;2023-06-22T05:33:19;100080.41;;;20.14;100.00
35519;BME280;21627;48.216;16.482;2023-06-22T05:35:46;100077.63;;;20.19;100.00
35519;BME280;21627;48.216;16.482;2023-06-22T05:38:14;100067.81;;;20.24;100.00
35519;BME280;21627;48.216;16.482;2023-06-22T05:40:41;100077.28;;;20.28;100.00
35519;BME280;21627;48.216;16.482;2023-06-22T05:43:08;100078.75;;;20.37;100.00
35519;BME280;21627;48.216;16.482;2023-06-22T05:45:36;100080.28;;;20.42;100.00
35519;BME280;21627;48.216;16.482;2023-06-22T05:48:03;100072.19;;;20.48;100.00
35519;BME280;21627;48.216;16.482;2023-06-22T05:50:30;100081.59;;;20.56;100.00
35519;BME280;21627;48.216;16.482;2023-06-22T05:52:58;100068.41;;;20.57;100.00
35519;BME280;21627;48.216;16.482;2023-06-22T05:55:25;100074.19;;;20.67;100.00
35519;BME280;21627;48.216;16.482;2023-06-22T05:57:52;100070.44;;;20.74;100.00
35519;BME280;21627;48.216;16.482;2023-06-22T06:00:20;100069.47;;;20.77;100.00
35519;BME280;21627;48.216;16.482;2023-06-22T06:02:48;100065.66;;;20.84;100.00
35519;BME280;21627;48.216;16.482;2023-06-22T06:05:16;100074.25;;;20.89;100.00
35519;BME280;21627;48.216;16.482;2023-06-22T06:07:44;100077.53;;;20.94;100.00
35519;BME280;21627;48.216;16.482;2023-06-22T06:10:12;100079.22;;;20.96;100.00
35519;BME280;21627;48.216;16.482;2023-06-22T06:12:40;100085.09;;;21.03;100.00
35519;BME280;21627;48.216;16.482;2023-06-22T06:15:07;100090.22;;;21.06;100.00
35519;BME280;21627;48.216;16.482;2023-06-22T06:17:48;100088.41;;;21.08;100.00
35519;BME280;21627;48.216;16.482;2023-06-22T06:20:20;100083.63;;;21.20;100.00
35519;BME280;21627;48.216;16.482;2023-06-22T06:22:49;100079.06;;;21.23;100.00
35519;BME280;21627;48.216;16.482;2023-06-22T06:25:16;100081.50;;;21.29;100.00
35519;BME280;21627;48.216;16.482;2023-06-22T06:27:51;100072.50;;;21.35;100.00
35519;BME280;21627;48.216;16.482;2023-06-22T06:30:19;100081.00;;;21.42;100.00
35519;BME280;21627;48.216;16.482;2023-06-22T06:32:47;100077.31;;;21.47;100.00
35519;BME280;21627;48.216;16.482;2023-06-22T06:35:15;100077.19;;;21.50;100.00
35519;BME280;21627;48.216;16.482;2023-06-22T06:37:48;100090.06;;;21.56;100.00
35519;BME280;21627;48.216;16.482;2023-06-22T06:40:17;100082.84;;;21.61;100.00
35519;BME280;21627;48.216;16.482;2023-06-22T06:42:47;100095.53;;;21.74;100.00
35519;BME280;21627;48.216;16.482;2023-06-22T06:45:23;100087.38;;;21.80;100.00
35519;BME280;21627;48.216;16.482;2023-06-22T06:47:51;100089.63;;;21.89;100.00
35519;BME280;21627;48.216;16.482;2023-06-22T06:50:19;100089.38;;;21.95;100.00
35519;BME280;21627;48.216;16.482;2023-06-22T06:52:47;100079.31;;;22.05;100.00
35519;BME280;21627;48.216;16.482;2023-06-22T06:55:14;100080.03;;;22.09;100.00
35519;BME280;21627;48.216;16.482;2023-06-22T06:57:42;100078.03;;;22.15;100.00
35519;BME280;21627;48.216;16.482;2023-06-22T07:00:12;100076.78;;;22.24;100.00
35519;BME280;21627;48.216;16.482;2023-06-22T07:02:44;100066.91;;;22.29;100.00
35519;BME280;21627;48.216;16.482;2023-06-22T07:05:13;100067.31;;;22.40;100.00
35519;BME280;21627;48.216;16.482;2023-06-22T07:07:40;100069.66;;;22.46;100.00
35519;BME280;21627;48.216;16.482;2023-06-22T07:10:09;100073.44;;;22.60;100.00
35519;BME280;21627;48.216;16.482;2023-06-22T07:12:36;100074.84;;;22.68;100.00
35519;BME280;21627;48.216;16.482;2023-06-22T07:15:09;100071.00;;;22.76;100.00
35519;BME280;21627;48.216;16.482;2023-06-22T07:17:37;100063.31;;;22.90;100.00
35519;BME280;21627;48.216;16.482;2023-06-22T07:20:07;100055.94;;;22.98;100.00
35519;BME280;21627;48.216;16.482;2023-06-22T07:22:40;100054.66;;;23.07;100.00
35519;BME280;21627;48.216;16.482;2023-06-22T07:25:08;100055.28;;;23.12;100.00
35519;BME280;21627;48.216;16.482;2023-06-22T07:28:03;100056.63;;;23.21;100.00
35519;BME280;21627;48.216;16.482;2023-06-22T07:30:32;100049.38;;;23.26;100.00
35519;BME280;21627;48.216;16.482;2023-06-22T07:33:00;100053.75;;;23.44;100.00
35519;BME280;21627;48.216;16.482;2023-06-22T07:35:32;100052.66;;;23.48;100.00
35519;BME280;21627;48.216;16.482;2023-06-22T07:38:00;100051.38;;;23.57;100.00
35519;BME280;21627;48.216;16.482;2023-06-22T07:40:31;100054.25;;;23.70;100.00
35519;BME280;21627;48.216;16.482;2023-06-22T07:42:59;100053.31;;;23.71;100.00
35519;BME280;21627;48.216;16.482;2023-06-22T07:45:26;100060.81;;;23.80;100.00
35519;BME280;21627;48.216;16.482;2023-06-22T07:47:53;100054.38;;;23.86;100.00
35519;BME280;21627;48.216;16.482;2023-06-22T07:50:20;100063.69;;;23.93;100.00
35519;BME280;21627;48.216;16.482;2023-06-22T07:52:47;100060.78;;;23.99;100.00
35519;BME280;21627;48.216;16.482;2023-06-22T07:55:15;100048.41;;;24.17;100.00
35519;BME280;21627;48.216;16.482;2023-06-22T07:57:42;100044.75;;;24.19;100.00
35519;BME280;21627;48.216;16.482;2023-06-22T08:00:10;100041.72;;;24.27;100.00
35519;BME280;21627;48.216;16.482;2023-06-22T08:02:45;100047.28;;;24.38;100.00
35519;BME280;21627;48.216;16.482;2023-06-22T08:05:14;100040.78;;;24.44;100.00
35519;BME280;21627;48.216;16.482;2023-06-22T08:08:00;100046.50;;;24.54;100.00
35519;BME280;21627;48.216;16.482;2023-06-22T08:10:27;100053.09;;;24.63;100.00
35519;BME280;21627;48.216;16.482;2023-06-22T08:12:54;100045.84;;;24.66;100.00
35519;BME280;21627;48.216;16.482;2023-06-22T08:15:22;100060.38;;;24.75;100.00
35519;BME280;21627;48.216;16.482;2023-06-22T08:17:52;100059.06;;;24.82;100.00
35519;BME280;21627;48.216;16.482;2023-06-22T08:20:20;100051.44;;;24.93;100.00
35519;BME280;21627;48.216;16.482;2023-06-22T08:22:47;100048.28;;;25.02;100.00
35519;BME280;21627;48.216;16.482;2023-06-22T08:25:14;100052.28;;;25.10;100.00
35519;BME280;21627;48.216;16.482;2023-06-22T08:27:45;100054.59;;;25.16;100.00
35519;BME280;21627;48.216;16.482;2023-06-22T08:30:14;100056.66;;;25.26;100.00
35519;BME280;21627;48.216;16.482;2023-06-22T08:32:41;100049.06;;;25.36;100.00
35519;BME280;21627;48.216;16.482;2023-06-22T08:35:09;100049.84;;;25.38;100.00
35519;BME280;21627;48.216;16.482;2023-06-22T08:37:37;100056.31;;;25.48;100.00
35519;BME280;21627;48.216;16.482;2023-06-22T08:40:09;100051.44;;;25.57;100.00
35519;BME280;21627;48.216;16.482;2023-06-22T08:42:39;100055.34;;;25.65;100.00
35519;BME280;21627;48.216;16.482;2023-06-22T08:45:08;100048.00;;;25.71;100.00
35519;BME280;21627;48.216;16.482;2023-06-22T08:47:35;100038.84;;;25.76;100.00
35519;BME280;21627;48.216;16.482;2023-06-22T08:50:02;100051.47;;;25.87;100.00
35519;BME280;21627;48.216;16.482;2023-06-22T08:52:30;100048.19;;;25.98;100.00
35519;BME280;21627;48.216;16.482;2023-06-22T08:54:58;100047.84;;;26.04;100.00
35519;BME280;21627;48.216;16.482;2023-06-22T08:57:26;100040.19;;;26.14;100.00
35519;BME280;21627;48.216;16.482;2023-06-22T08:59:53;100041.34;;;26.24;100.00
35519;BME280;21627;48.216;16.482;2023-06-22T09:02:20;100039.16;;;26.30;100.00
35519;BME280;21627;48.216;16.482;2023-06-22T09:04:47;100033.78;;;26.32;100.00
35519;BME280;21627;48.216;16.482;2023-06-22T09:07:16;100037.63;;;26.41;100.00
35519;BME280;21627;48.216;16.482;2023-06-22T09:09:49;100043.34;;;26.49;100.00
35519;BME280;21627;48.216;16.482;2023-06-22T09:12:20;100035.81;;;26.57;96.44
35519;BME280;21627;48.216;16.482;2023-06-22T09:14:49;100035.59;;;26.60;97.48
35519;BME280;21627;48.216;16.482;2023-06-22T09:17:16;100041.09;;;26.71;99.14
35519;BME280;21627;48.216;16.482;2023-06-22T09:19:44;100020.63;;;26.73;99.35
35519;BME280;21627;48.216;16.482;2023-06-22T09:22:11;100035.59;;;26.89;92.23
35519;BME280;21627;48.216;16.482;2023-06-22T09:24:41;100024.56;;;26.95;91.19
35519;BME280;21627;48.216;16.482;2023-06-22T09:27:08;100035.47;;;27.05;93.04
35519;BME280;21627;48.216;16.482;2023-06-22T09:29:35;100025.41;;;27.10;90.55
35519;BME280;21627;48.216;16.482;2023-06-22T09:32:02;100033.53;;;27.21;91.57
35519;BME280;21627;48.216;16.482;2023-06-22T09:34:30;100027.72;;;27.29;92.81
35519;BME280;21627;48.216;16.482;2023-06-22T09:36:58;100026.19;;;27.39;91.18
35519;BME280;21627;48.216;16.482;2023-06-22T09:39:27;100028.16;;;27.50;88.93
35519;BME280;21627;48.216;16.482;2023-06-22T09:41:55;100012.63;;;27.56;86.75
35519;BME280;21627;48.216;16.482;2023-06-22T09:44:22;100013.53;;;27.70;85.87
35519;BME280;21627;48.216;16.482;2023-06-22T09:46:49;100013.03;;;27.77;84.73
35519;BME280;21627;48.216;16.482;2023-06-22T09:49:16;100020.69;;;27.82;84.67
35519;BME280;21627;48.216;16.482;2023-06-22T09:51:43;100011.34;;;27.89;81.27
35519;BME280;21627;48.216;16.482;2023-06-22T09:54:10;100010.09;;;27.95;80.18
35519;BME280;21627;48.216;16.482;2023-06-22T09:56:37;100001.91;;;28.11;80.91
35519;BME280;21627;48.216;16.482;2023-06-22T09:59:04;100012.66;;;28.22;84.42
35519;BME280;21627;48.216;16.482;2023-06-22T10:01:44;100007.66;;;28.30;84.94
35519;BME280;21627;48.216;16.482;2023-06-22T10:04:11;99998.81;;;28.30;79.93
35519;BME280;21627;48.216;16.482;2023-06-22T10:06:39;100012.31;;;28.39;80.80
35519;BME280;21627;48.216;16.482;2023-06-22T10:09:08;100006.63;;;28.45;82.38
35519;BME280;21627;48.216;16.482;2023-06-22T10:11:35;99989.34;;;28.38;78.69
35519;BME280;21627;48.216;16.482;2023-06-22T10:14:03;99998.19;;;28.52;80.79
35519;BME280;21627;48.216;16.482;2023-06-22T10:16:31;100006.47;;;28.60;79.56
35519;BME280;21627;48.216;16.482;2023-06-22T10:18:59;100005.22;;;28.65;77.62
35519;BME280;21627;48.216;16.482;2023-06-22T10:21:27;100003.69;;;28.74;78.03
35519;BME280;21627;48.216;16.482;2023-06-22T10:23:55;99997.72;;;28.83;77.33
35519;BME280;21627;48.216;16.482;2023-06-22T10:26:22;99991.72;;;28.92;73.20
35519;BME280;21627;48.216;16.482;2023-06-22T10:28:50;100000.41;;;29.07;71.43
35519;BME280;21627;48.216;16.482;2023-06-22T10:31:26;99996.63;;;29.23;71.07
35519;BME280;21627;48.216;16.482;2023-06-22T10:33:55;99996.94;;;29.31;65.49
35519;BME280;21627;48.216;16.482;2023-06-22T10:36:22;100002.13;;;29.32;65.29
35519;BME280;21627;48.216;16.482;2023-06-22T10:38:49;99995.13;;;29.31;64.02
35519;BME280;21627;48.216;16.482;2023-06-22T10:41:17;99986.53;;;29.39;67.01
35519;BME280;21627;48.216;16.482;2023-06-22T10:43:44;99984.78;;;29.51;65.38
35519;BME280;21627;48.216;16.482;2023-06-22T10:46:12;99987.81;;;29.58;66.62
35519;BME280;21627;48.216;16.482;2023-06-22T10:48:39;99982.72;;;29.54;65.24
35519;BME280;21627;48.216;16.482;2023-06-22T10:51:06;99981.41;;;29.60;67.42
35519;BME280;21627;48.216;16.482;2023-06-22T10:53:33;99980.00;;;29.67;64.50
35519;BME280;21627;48.216;16.482;2023-06-22T10:56:00;99976.03;;;29.73;68.98
35519;BME280;21627;48.216;16.482;2023-06-22T10:58:28;99966.34;;;29.83;67.91
35519;BME280;21627;48.216;16.482;2023-06-22T11:00:55;99979.09;;;29.91;66.45
35519;BME280;21627;48.216;16.482;2023-06-22T11:03:22;99973.28;;;29.97;67.92
35519;BME280;21627;48.216;16.482;2023-06-22T11:05:49;99978.78;;;30.07;65.66
35519;BME280;21627;48.216;16.482;2023-06-22T11:08:16;99966.88;;;30.11;64.47
35519;BME280;21627;48.216;16.482;2023-06-22T11:10:44;99963.59;;;30.18;64.35
35519;BME280;21627;48.216;16.482;2023-06-22T11:13:11;99962.34;;;30.24;62.90
35519;BME280;21627;48.216;16.482;2023-06-22T11:15:39;99963.41;;;30.33;63.13
35519;BME280;21627;48.216;16.482;2023-06-22T11:18:06;99955.03;;;30.37;63.21
35519;BME280;21627;48.216;16.482;2023-06-22T11:20:34;99955.16;;;30.47;62.42
35519;BME280;21627;48.216;16.482;2023-06-22T11:23:05;99936.72;;;30.55;64.81
35519;BME280;21627;48.216;16.482;2023-06-22T11:25:33;99936.84;;;30.43;61.17
35519;BME280;21627;48.216;16.482;2023-06-22T11:28:05;99941.09;;;30.45;61.36
35519;BME280;21627;48.216;16.482;2023-06-22T11:30:32;99942.03;;;30.44;61.51
35519;BME280;21627;48.216;16.482;2023-06-22T11:32:59;99944.81;;;30.54;58.90
35519;BME280;21627;48.216;16.482;2023-06-22T11:35:27;99941.44;;;30.63;62.91
35519;BME280;21627;48.216;16.482;2023-06-22T11:37:54;99935.56;;;30.80;59.78
35519;BME280;21627;48.216;16.482;2023-06-22T11:40:23;99933.50;;;30.84;60.04
35519;BME280;21627;48.216;16.482;2023-06-22T11:42:50;99934.59;;;30.93;62.08
35519;BME280;21627;48.216;16.482;2023-06-22T11:45:17;99931.56;;;30.86;59.37
35519;BME280;21627;48.216;16.482;2023-06-22T11:47:46;99933.25;;;30.98;62.74
35519;BME280;21627;48.216;16.482;2023-06-22T11:50:13;99925.78;;;31.13;62.38
35519;BME280;21627;48.216;16.482;2023-06-22T11:52:40;99924.31;;;31.20;61.38
35519;BME280;21627;48.216;16.482;2023-06-22T11:55:08;99930.59;;;31.19;60.24
35519;BME280;21627;48.216;16.482;2023-06-22T11:57:52;99926.81;;;31.22;57.24
35519;BME280;21627;48.216;16.482;2023-06-22T12:00:19;99928.66;;;31.21;59.03
35519;BME280;21627;48.216;16.482;2023-06-22T12:02:47;99931.75;;;31.38;61.98
35519;BME280;21627;48.216;16.482;2023-06-22T12:05:15;99932.13;;;31.33;59.36
35519;BME280;21627;48.216;16.482;2023-06-22T12:07:42;99921.94;;;31.27;57.70
35519;BME280;21627;48.216;16.482;2023-06-22T12:10:09;99930.03;;;31.37;60.01
35519;BME280;21627;48.216;16.482;2023-06-22T12:12:36;99925.53;;;31.37;57.94
35519;BME280;21627;48.216;16.482;2023-06-22T12:15:04;99922.13;;;31.46;57.58
35519;BME280;21627;48.216;16.482;2023-06-22T12:17:33;99915.56;;;31.51;60.35
35519;BME280;21627;48.216;16.482;2023-06-22T12:20:00;99918.69;;;31.56;58.31
35519;BME280;21627;48.216;16.482;2023-06-22T12:22:28;99916.84;;;31.56;56.55
35519;BME280;21627;48.216;16.482;2023-06-22T12:24:55;99916.00;;;31.56;57.90
35519;BME280;21627;48.216;16.482;2023-06-22T12:27:22;99912.34;;;31.57;57.27
35519;BME280;21627;48.216;16.482;2023-06-22T12:29:50;99901.97;;;31.63;59.30
35519;BME280;21627;48.216;16.482;2023-06-22T12:32:17;99897.22;;;31.67;59.35
35519;BME280;21627;48.216;16.482;2023-06-22T12:34:44;99908.81;;;31.77;57.95
35519;BME280;21627;48.216;16.482;2023-06-22T12:37:12;99895.38;;;31.88;56.33
35519;BME280;21627;48.216;16.482;2023-06-22T12:39:41;99886.75;;;32.06;55.47
35519;BME280;21627;48.216;16.482;2023-06-22T12:42:08;99887.03;;;32.12;59.75
35519;BME280;21627;48.216;16.482;2023-06-22T12:44:38;99896.50;;;32.17;57.86
35519;BME280;21627;48.216;16.482;2023-06-22T12:47:05;99896.81;;;32.33;59.22
35519;BME280;21627;48.216;16.482;2023-06-22T12:49:33;99886.53;;;32.38;58.70
35519;BME280;21627;48.216;16.482;2023-06-22T12:52:00;99884.03;;;32.37;56.42